sensor_id;sensor_type;location;lat;lon;timestamp;P1;durP1;ratioP1;P2;durP2;ratioP2
67442;SDS011;54311;51.726;5.154;2023-03-01T00:01:19;17.08;;;15.27;;
67442;SDS011;54311;51.726;5.154;2023-03-01T00:03:46;16.83;;;15.23;;
67442;SDS011;54311;51.726;5.154;2023-03-01T00:06:11;19.00;;;17.02;;
67442;SDS011;54311;51.726;5.154;2023-03-01T00:08:37;18.08;;;16.48;;
67442;SDS011;54311;51.726;5.154;2023-03-01T00:11:07;16.52;;;14.82;;
67442;SDS011;54311;51.726;5.154;2023-03-01T00:13:33;16.83;;;15.23;;
67442;SDS011;54311;51.726;5.154;2023-03-01T00:16:01;18.15;;;16.35;;
67442;SDS011;54311;51.726;5.154;2023-03-01T00:18:27;17.20;;;15.32;;
67442;SDS011;54311;51.726;5.154;2023-03-01T00:20:53;17.90;;;16.20;;
67442;SDS011;54311;51.726;5.154;2023-03-01T00:23:19;17.52;;;15.80;;
67442;SDS011;54311;51.726;5.154;2023-03-01T00:25:45;17.80;;;16.30;;
67442;SDS011;54311;51.726;5.154;2023-03-01T00:28:10;16.83;;;15.18;;
67442;SDS011;54311;51.726;5.154;2023-03-01T00:30:35;17.85;;;16.15;;
67442;SDS011;54311;51.726;5.154;2023-03-01T00:33:01;18.90;;;15.70;;
67442;SDS011;54311;51.726;5.154;2023-03-01T00:35:26;18.50;;;16.67;;
67442;SDS011;54311;51.726;5.154;2023-03-01T00:37:51;17.23;;;15.52;;
67442;SDS011;54311;51.726;5.154;2023-03-01T00:40:23;18.08;;;16.27;;
67442;SDS011;54311;51.726;5.154;2023-03-01T00:42:49;17.52;;;15.82;;
67442;SDS011;54311;51.726;5.154;2023-03-01T00:45:14;18.00;;;15.80;;
67442;SDS011;54311;51.726;5.154;2023-03-01T00:47:40;18.20;;;16.40;;
67442;SDS011;54311;51.726;5.154;2023-03-01T00:50:05;19.58;;;16.35;;
67442;SDS011;54311;51.726;5.154;2023-03-01T00:52:31;19.23;;;16.08;;
67442;SDS011;54311;51.726;5.154;2023-03-01T00:54:56;17.67;;;15.98;;
67442;SDS011;54311;51.726;5.154;2023-03-01T00:57:22;18.85;;;16.73;;
67442;SDS011;54311;51.726;5.154;2023-03-01T00:59:48;18.00;;;16.30;;
67442;SDS011;54311;51.726;5.154;2023-03-01T01:02:13;18.05;;;16.13;;
67442;SDS011;54311;51.726;5.154;2023-03-01T01:04:39;17.95;;;16.35;;
67442;SDS011;54311;51.726;5.154;2023-03-01T01:07:04;17.95;;;16.15;;
67442;SDS011;54311;51.726;5.154;2023-03-01T01:09:30;20.88;;;17.13;;
67442;SDS011;54311;51.726;5.154;2023-03-01T01:11:55;21.63;;;15.82;;
67442;SDS011;54311;51.726;5.154;2023-03-01T01:14:21;21.02;;;15.65;;
67442;SDS011;54311;51.726;5.154;2023-03-01T01:16:46;17.58;;;15.75;;
67442;SDS011;54311;51.726;5.154;2023-03-01T01:19:12;19.40;;;16.13;;
67442;SDS011;54311;51.726;5.154;2023-03-01T01:21:38;18.63;;;16.67;;
67442;SDS011;54311;51.726;5.154;2023-03-01T01:24:03;18.95;;;16.98;;
67442;SDS011;54311;51.726;5.154;2023-03-01T01:26:31;18.20;;;16.35;;
67442;SDS011;54311;51.726;5.154;2023-03-01T01:28:59;18.42;;;16.60;;
67442;SDS011;54311;51.726;5.154;2023-03-01T01:31:25;18.40;;;16.63;;
67442;SDS011;54311;51.726;5.154;2023-03-01T01:33:52;18.40;;;16.52;;
67442;SDS011;54311;51.726;5.154;2023-03-01T01:36:18;18.40;;;16.75;;
67442;SDS011;54311;51.726;5.154;2023-03-01T01:38:43;18.15;;;16.33;;
67442;SDS011;54311;51.726;5.154;2023-03-01T01:41:09;18.77;;;16.88;;
67442;SDS011;54311;51.726;5.154;2023-03-01T01:43:42;18.65;;;16.83;;
67442;SDS011;54311;51.726;5.154;2023-03-01T01:46:16;19.95;;;18.00;;
67442;SDS011;54311;51.726;5.154;2023-03-01T01:48:57;17.85;;;15.95;;
67442;SDS011;54311;51.726;5.154;2023-03-01T01:51:26;18.55;;;16.73;;
67442;SDS011;54311;51.726;5.154;2023-03-01T01:53:56;19.98;;;17.52;;
67442;SDS011;54311;51.726;5.154;2023-03-01T01:56:24;17.73;;;16.02;;
67442;SDS011;54311;51.726;5.154;2023-03-01T01:58:51;18.45;;;16.52;;
67442;SDS011;54311;51.726;5.154;2023-03-01T02:01:17;17.75;;;16.15;;
67442;SDS011;54311;51.726;5.154;2023-03-01T02:03:42;17.95;;;16.05;;
67442;SDS011;54311;51.726;5.154;2023-03-01T02:08:35;16.88;;;15.32;;
67442;SDS011;54311;51.726;5.154;2023-03-01T02:11:02;18.58;;;16.88;;
67442;SDS011;54311;51.726;5.154;2023-03-01T02:13:34;17.60;;;15.27;;
67442;SDS011;54311;51.726;5.154;2023-03-01T02:16:02;16.63;;;15.18;;
67442;SDS011;54311;51.726;5.154;2023-03-01T02:18:29;17.45;;;15.90;;
67442;SDS011;54311;51.726;5.154;2023-03-01T02:23:31;17.60;;;15.82;;
67442;SDS011;54311;51.726;5.154;2023-03-01T02:28:32;17.70;;;15.85;;
67442;SDS011;54311;51.726;5.154;2023-03-01T02:30:59;16.27;;;14.85;;
67442;SDS011;54311;51.726;5.154;2023-03-01T02:33:44;16.50;;;15.07;;
67442;SDS011;54311;51.726;5.154;2023-03-01T02:36:12;16.33;;;14.68;;
67442;SDS011;54311;51.726;5.154;2023-03-01T02:38:41;16.50;;;15.00;;
67442;SDS011;54311;51.726;5.154;2023-03-01T02:41:07;18.08;;;15.57;;
67442;SDS011;54311;51.726;5.154;2023-03-01T02:43:33;17.42;;;15.73;;
67442;SDS011;54311;51.726;5.154;2023-03-01T02:46:04;17.75;;;15.95;;
67442;SDS011;54311;51.726;5.154;2023-03-01T02:48:53;16.80;;;15.10;;
67442;SDS011;54311;51.726;5.154;2023-03-01T02:56:41;17.48;;;15.85;;
67442;SDS011;54311;51.726;5.154;2023-03-01T02:59:08;16.77;;;15.27;;
67442;SDS011;54311;51.726;5.154;2023-03-01T03:01:33;17.35;;;15.85;;
67442;SDS011;54311;51.726;5.154;2023-03-01T03:04:11;16.33;;;14.68;;
67442;SDS011;54311;51.726;5.154;2023-03-01T03:06:45;17.10;;;15.60;;
67442;SDS011;54311;51.726;5.154;2023-03-01T03:09:12;17.35;;;15.65;;
67442;SDS011;54311;51.726;5.154;2023-03-01T03:11:38;18.00;;;16.27;;
67442;SDS011;54311;51.726;5.154;2023-03-01T03:14:05;17.33;;;15.63;;
67442;SDS011;54311;51.726;5.154;2023-03-01T03:16:40;16.67;;;15.18;;
67442;SDS011;54311;51.726;5.154;2023-03-01T03:19:06;17.63;;;15.88;;
67442;SDS011;54311;51.726;5.154;2023-03-01T03:21:32;17.75;;;16.08;;
67442;SDS011;54311;51.726;5.154;2023-03-01T03:23:58;18.23;;;16.42;;
67442;SDS011;54311;51.726;5.154;2023-03-01T03:26:23;18.70;;;16.77;;
67442;SDS011;54311;51.726;5.154;2023-03-01T03:28:48;18.52;;;16.67;;
67442;SDS011;54311;51.726;5.154;2023-03-01T03:31:14;18.98;;;17.13;;
67442;SDS011;54311;51.726;5.154;2023-03-01T03:33:39;19.38;;;17.67;;
67442;SDS011;54311;51.726;5.154;2023-03-01T03:36:05;21.10;;;18.13;;
67442;SDS011;54311;51.726;5.154;2023-03-01T03:38:30;21.30;;;18.08;;
67442;SDS011;54311;51.726;5.154;2023-03-01T03:41:03;20.45;;;18.45;;
67442;SDS011;54311;51.726;5.154;2023-03-01T03:43:31;20.33;;;17.55;;
67442;SDS011;54311;51.726;5.154;2023-03-01T03:45:58;20.83;;;17.90;;
67442;SDS011;54311;51.726;5.154;2023-03-01T03:48:23;20.48;;;18.10;;
67442;SDS011;54311;51.726;5.154;2023-03-01T03:50:53;20.35;;;18.33;;
67442;SDS011;54311;51.726;5.154;2023-03-01T03:53:19;20.55;;;18.35;;
67442;SDS011;54311;51.726;5.154;2023-03-01T03:55:46;20.17;;;18.25;;
67442;SDS011;54311;51.726;5.154;2023-03-01T03:58:14;20.20;;;18.13;;
67442;SDS011;54311;51.726;5.154;2023-03-01T04:00:42;19.10;;;17.20;;
67442;SDS011;54311;51.726;5.154;2023-03-01T04:03:10;20.38;;;17.83;;
67442;SDS011;54311;51.726;5.154;2023-03-01T04:05:36;19.10;;;17.10;;
67442;SDS011;54311;51.726;5.154;2023-03-01T04:08:02;19.60;;;17.63;;
67442;SDS011;54311;51.726;5.154;2023-03-01T04:10:37;18.02;;;16.23;;
67442;SDS011;54311;51.726;5.154;2023-03-01T04:13:04;20.83;;;18.83;;
67442;SDS011;54311;51.726;5.154;2023-03-01T04:15:30;20.05;;;17.55;;
67442;SDS011;54311;51.726;5.154;2023-03-01T04:17:57;19.33;;;17.38;;
67442;SDS011;54311;51.726;5.154;2023-03-01T04:20:24;20.08;;;18.13;;
67442;SDS011;54311;51.726;5.154;2023-03-01T04:22:53;19.52;;;17.70;;
67442;SDS011;54311;51.726;5.154;2023-03-01T04:25:23;19.23;;;17.33;;
67442;SDS011;54311;51.726;5.154;2023-03-01T04:27:48;19.02;;;17.13;;
67442;SDS011;54311;51.726;5.154;2023-03-01T04:30:14;19.27;;;17.25;;
67442;SDS011;54311;51.726;5.154;2023-03-01T04:32:39;18.40;;;16.55;;
67442;SDS011;54311;51.726;5.154;2023-03-01T04:35:05;22.50;;;17.15;;
67442;SDS011;54311;51.726;5.154;2023-03-01T04:37:31;19.35;;;17.33;;
67442;SDS011;54311;51.726;5.154;2023-03-01T04:39:56;22.85;;;18.48;;
67442;SDS011;54311;51.726;5.154;2023-03-01T04:42:22;19.08;;;17.27;;
67442;SDS011;54311;51.726;5.154;2023-03-01T04:44:48;19.17;;;16.50;;
67442;SDS011;54311;51.726;5.154;2023-03-01T04:47:16;17.85;;;16.15;;
67442;SDS011;54311;51.726;5.154;2023-03-01T04:49:41;18.63;;;16.85;;
67442;SDS011;54311;51.726;5.154;2023-03-01T04:52:07;16.75;;;15.25;;
67442;SDS011;54311;51.726;5.154;2023-03-01T04:54:32;20.00;;;17.63;;
67442;SDS011;54311;51.726;5.154;2023-03-01T04:56:58;19.65;;;17.55;;
67442;SDS011;54311;51.726;5.154;2023-03-01T04:59:24;19.60;;;17.52;;
67442;SDS011;54311;51.726;5.154;2023-03-01T05:01:50;21.67;;;17.17;;
67442;SDS011;54311;51.726;5.154;2023-03-01T05:04:16;18.90;;;17.00;;
67442;SDS011;54311;51.726;5.154;2023-03-01T05:06:41;18.38;;;16.58;;
67442;SDS011;54311;51.726;5.154;2023-03-01T05:09:07;20.65;;;18.02;;
67442;SDS011;54311;51.726;5.154;2023-03-01T05:11:32;19.13;;;17.10;;
67442;SDS011;54311;51.726;5.154;2023-03-01T05:14:01;19.45;;;17.40;;
67442;SDS011;54311;51.726;5.154;2023-03-01T05:16:27;20.23;;;18.38;;
67442;SDS011;54311;51.726;5.154;2023-03-01T05:18:52;20.52;;;18.48;;
67442;SDS011;54311;51.726;5.154;2023-03-01T05:21:20;20.05;;;17.90;;
67442;SDS011;54311;51.726;5.154;2023-03-01T05:23:45;23.17;;;18.85;;
67442;SDS011;54311;51.726;5.154;2023-03-01T05:26:11;20.58;;;18.58;;
67442;SDS011;54311;51.726;5.154;2023-03-01T05:28:37;21.85;;;18.45;;
67442;SDS011;54311;51.726;5.154;2023-03-01T05:31:03;19.92;;;17.92;;
67442;SDS011;54311;51.726;5.154;2023-03-01T05:33:32;18.50;;;16.60;;
67442;SDS011;54311;51.726;5.154;2023-03-01T05:35:59;20.30;;;18.20;;
67442;SDS011;54311;51.726;5.154;2023-03-01T05:38:25;19.48;;;17.67;;
67442;SDS011;54311;51.726;5.154;2023-03-01T05:40:50;20.00;;;17.90;;
67442;SDS011;54311;51.726;5.154;2023-03-01T05:43:16;20.33;;;18.30;;
67442;SDS011;54311;51.726;5.154;2023-03-01T05:45:41;18.98;;;17.05;;
67442;SDS011;54311;51.726;5.154;2023-03-01T05:48:07;18.38;;;16.42;;
67442;SDS011;54311;51.726;5.154;2023-03-01T05:50:38;19.33;;;17.42;;
67442;SDS011;54311;51.726;5.154;2023-03-01T05:53:06;23.83;;;18.95;;
67442;SDS011;54311;51.726;5.154;2023-03-01T05:55:34;21.13;;;18.90;;
67442;SDS011;54311;51.726;5.154;2023-03-01T05:58:01;20.98;;;18.15;;
67442;SDS011;54311;51.726;5.154;2023-03-01T06:00:28;19.65;;;17.02;;
67442;SDS011;54311;51.726;5.154;2023-03-01T06:02:55;19.75;;;17.85;;
67442;SDS011;54311;51.726;5.154;2023-03-01T06:05:21;19.63;;;17.60;;
67442;SDS011;54311;51.726;5.154;2023-03-01T06:07:47;19.67;;;17.73;;
67442;SDS011;54311;51.726;5.154;2023-03-01T06:10:13;20.10;;;18.05;;
67442;SDS011;54311;51.726;5.154;2023-03-01T06:12:39;19.15;;;17.33;;
67442;SDS011;54311;51.726;5.154;2023-03-01T06:15:06;19.50;;;17.50;;
67442;SDS011;54311;51.726;5.154;2023-03-01T06:17:34;20.25;;;18.38;;
67442;SDS011;54311;51.726;5.154;2023-03-01T06:20:03;20.60;;;18.48;;
67442;SDS011;54311;51.726;5.154;2023-03-01T06:22:29;19.30;;;17.38;;
67442;SDS011;54311;51.726;5.154;2023-03-01T06:24:55;17.77;;;16.15;;
67442;SDS011;54311;51.726;5.154;2023-03-01T06:27:20;18.73;;;16.77;;
67442;SDS011;54311;51.726;5.154;2023-03-01T06:29:45;17.25;;;15.65;;
67442;SDS011;54311;51.726;5.154;2023-03-01T06:32:11;17.83;;;16.08;;
67442;SDS011;54311;51.726;5.154;2023-03-01T06:34:36;20.10;;;16.13;;
67442;SDS011;54311;51.726;5.154;2023-03-01T06:37:01;17.15;;;15.65;;
67442;SDS011;54311;51.726;5.154;2023-03-01T06:39:30;17.80;;;15.93;;
67442;SDS011;54311;51.726;5.154;2023-03-01T06:41:55;16.80;;;15.30;;
67442;SDS011;54311;51.726;5.154;2023-03-01T06:44:21;17.35;;;15.65;;
67442;SDS011;54311;51.726;5.154;2023-03-01T06:46:46;18.48;;;16.17;;
67442;SDS011;54311;51.726;5.154;2023-03-01T06:49:12;16.85;;;15.38;;
67442;SDS011;54311;51.726;5.154;2023-03-01T06:51:37;17.00;;;15.38;;
67442;SDS011;54311;51.726;5.154;2023-03-01T06:54:05;17.95;;;15.70;;
67442;SDS011;54311;51.726;5.154;2023-03-01T06:56:31;17.58;;;15.02;;
67442;SDS011;54311;51.726;5.154;2023-03-01T06:58:57;18.25;;;16.35;;
67442;SDS011;54311;51.726;5.154;2023-03-01T07:01:22;16.88;;;14.98;;
67442;SDS011;54311;51.726;5.154;2023-03-01T07:03:48;17.63;;;15.93;;
67442;SDS011;54311;51.726;5.154;2023-03-01T07:06:13;17.92;;;15.15;;
67442;SDS011;54311;51.726;5.154;2023-03-01T07:08:38;19.42;;;16.65;;
67442;SDS011;54311;51.726;5.154;2023-03-01T07:11:04;18.27;;;16.38;;
67442;SDS011;54311;51.726;5.154;2023-03-01T07:13:30;17.80;;;16.10;;
67442;SDS011;54311;51.726;5.154;2023-03-01T07:15:56;19.67;;;17.60;;
67442;SDS011;54311;51.726;5.154;2023-03-01T07:18:21;18.48;;;16.67;;
67442;SDS011;54311;51.726;5.154;2023-03-01T07:20:46;18.35;;;15.77;;
67442;SDS011;54311;51.726;5.154;2023-03-01T07:23:12;17.35;;;15.48;;
67442;SDS011;54311;51.726;5.154;2023-03-01T07:25:37;17.42;;;14.52;;
67442;SDS011;54311;51.726;5.154;2023-03-01T07:28:03;16.77;;;15.18;;
67442;SDS011;54311;51.726;5.154;2023-03-01T07:30:28;16.33;;;14.57;;
67442;SDS011;54311;51.726;5.154;2023-03-01T07:32:54;15.48;;;14.07;;
67442;SDS011;54311;51.726;5.154;2023-03-01T07:35:20;17.05;;;14.13;;
67442;SDS011;54311;51.726;5.154;2023-03-01T07:37:46;16.25;;;14.70;;
67442;SDS011;54311;51.726;5.154;2023-03-01T07:40:12;21.95;;;14.50;;
67442;SDS011;54311;51.726;5.154;2023-03-01T07:42:37;17.52;;;15.60;;
67442;SDS011;54311;51.726;5.154;2023-03-01T07:45:04;19.05;;;15.48;;
67442;SDS011;54311;51.726;5.154;2023-03-01T07:47:30;17.55;;;15.88;;
67442;SDS011;54311;51.726;5.154;2023-03-01T07:49:55;16.95;;;15.15;;
67442;SDS011;54311;51.726;5.154;2023-03-01T07:52:21;16.13;;;14.32;;
67442;SDS011;54311;51.726;5.154;2023-03-01T07:54:46;15.80;;;13.85;;
67442;SDS011;54311;51.726;5.154;2023-03-01T07:57:11;16.15;;;14.45;;
67442;SDS011;54311;51.726;5.154;2023-03-01T07:59:37;16.13;;;14.57;;
67442;SDS011;54311;51.726;5.154;2023-03-01T08:02:02;15.70;;;14.20;;
67442;SDS011;54311;51.726;5.154;2023-03-01T08:04:28;17.30;;;14.85;;
67442;SDS011;54311;51.726;5.154;2023-03-01T08:06:54;15.65;;;14.20;;
67442;SDS011;54311;51.726;5.154;2023-03-01T08:09:20;16.77;;;15.18;;
67442;SDS011;54311;51.726;5.154;2023-03-01T08:11:45;15.27;;;13.57;;
67442;SDS011;54311;51.726;5.154;2023-03-01T08:14:11;16.73;;;14.43;;
67442;SDS011;54311;51.726;5.154;2023-03-01T08:16:36;17.83;;;15.30;;
67442;SDS011;54311;51.726;5.154;2023-03-01T08:19:07;15.77;;;14.27;;
67442;SDS011;54311;51.726;5.154;2023-03-01T08:21:33;19.80;;;14.32;;
67442;SDS011;54311;51.726;5.154;2023-03-01T08:24:00;16.85;;;15.27;;
67442;SDS011;54311;51.726;5.154;2023-03-01T08:26:26;16.05;;;14.45;;
67442;SDS011;54311;51.726;5.154;2023-03-01T08:28:51;16.17;;;14.57;;
67442;SDS011;54311;51.726;5.154;2023-03-01T08:33:48;20.10;;;13.75;;
67442;SDS011;54311;51.726;5.154;2023-03-01T08:36:19;15.40;;;14.13;;
67442;SDS011;54311;51.726;5.154;2023-03-01T08:38:46;16.58;;;15.10;;
67442;SDS011;54311;51.726;5.154;2023-03-01T08:41:11;14.45;;;13.02;;
67442;SDS011;54311;51.726;5.154;2023-03-01T08:43:36;17.08;;;13.95;;
67442;SDS011;54311;51.726;5.154;2023-03-01T08:46:02;16.88;;;14.23;;
67442;SDS011;54311;51.726;5.154;2023-03-01T08:48:28;16.73;;;14.50;;
67442;SDS011;54311;51.726;5.154;2023-03-01T08:50:54;15.02;;;13.68;;
67442;SDS011;54311;51.726;5.154;2023-03-01T08:53:19;16.33;;;14.15;;
67442;SDS011;54311;51.726;5.154;2023-03-01T08:55:44;15.35;;;13.85;;
67442;SDS011;54311;51.726;5.154;2023-03-01T08:58:10;24.35;;;14.15;;
67442;SDS011;54311;51.726;5.154;2023-03-01T09:00:35;15.38;;;13.82;;
67442;SDS011;54311;51.726;5.154;2023-03-01T09:03:00;14.90;;;13.65;;
67442;SDS011;54311;51.726;5.154;2023-03-01T09:05:26;14.25;;;12.98;;
67442;SDS011;54311;51.726;5.154;2023-03-01T09:07:51;15.55;;;13.98;;
67442;SDS011;54311;51.726;5.154;2023-03-01T09:10:17;14.77;;;13.38;;
67442;SDS011;54311;51.726;5.154;2023-03-01T09:12:43;16.83;;;14.10;;
67442;SDS011;54311;51.726;5.154;2023-03-01T09:15:08;17.13;;;13.90;;
67442;SDS011;54311;51.726;5.154;2023-03-01T09:17:34;15.75;;;14.15;;
67442;SDS011;54311;51.726;5.154;2023-03-01T09:19:59;14.48;;;13.07;;
67442;SDS011;54311;51.726;5.154;2023-03-01T09:22:25;14.93;;;13.63;;
67442;SDS011;54311;51.726;5.154;2023-03-01T09:24:50;12.73;;;11.70;;
67442;SDS011;54311;51.726;5.154;2023-03-01T09:27:15;14.30;;;12.80;;
67442;SDS011;54311;51.726;5.154;2023-03-01T09:29:43;14.13;;;12.82;;
67442;SDS011;54311;51.726;5.154;2023-03-01T09:32:09;14.20;;;12.85;;
67442;SDS011;54311;51.726;5.154;2023-03-01T09:34:35;15.40;;;12.77;;
67442;SDS011;54311;51.726;5.154;2023-03-01T09:37:20;14.35;;;13.07;;
67442;SDS011;54311;51.726;5.154;2023-03-01T09:39:45;13.63;;;12.25;;
67442;SDS011;54311;51.726;5.154;2023-03-01T09:42:11;13.68;;;12.32;;
67442;SDS011;54311;51.726;5.154;2023-03-01T09:44:43;13.23;;;11.98;;
67442;SDS011;54311;51.726;5.154;2023-03-01T09:47:16;13.02;;;11.90;;
67442;SDS011;54311;51.726;5.154;2023-03-01T09:49:44;13.32;;;12.13;;
67442;SDS011;54311;51.726;5.154;2023-03-01T09:54:59;13.88;;;11.75;;
67442;SDS011;54311;51.726;5.154;2023-03-01T09:57:45;12.65;;;11.45;;
67442;SDS011;54311;51.726;5.154;2023-03-01T10:03:20;16.55;;;13.05;;
67442;SDS011;54311;51.726;5.154;2023-03-01T10:11:12;14.68;;;13.20;;
67442;SDS011;54311;51.726;5.154;2023-03-01T10:14:05;14.35;;;13.10;;
67442;SDS011;54311;51.726;5.154;2023-03-01T10:16:48;14.27;;;12.98;;
67442;SDS011;54311;51.726;5.154;2023-03-01T10:19:20;15.18;;;13.68;;
67442;SDS011;54311;51.726;5.154;2023-03-01T10:21:48;13.95;;;12.45;;
67442;SDS011;54311;51.726;5.154;2023-03-01T10:24:16;13.65;;;12.35;;
67442;SDS011;54311;51.726;5.154;2023-03-01T10:29:23;13.02;;;11.85;;
67442;SDS011;54311;51.726;5.154;2023-03-01T10:31:54;14.23;;;12.93;;
67442;SDS011;54311;51.726;5.154;2023-03-01T10:34:29;13.38;;;12.18;;
67442;SDS011;54311;51.726;5.154;2023-03-01T10:37:13;14.15;;;12.88;;
67442;SDS011;54311;51.726;5.154;2023-03-01T10:42:30;11.90;;;10.80;;
67442;SDS011;54311;51.726;5.154;2023-03-01T10:44:57;13.40;;;12.23;;
67442;SDS011;54311;51.726;5.154;2023-03-01T10:47:24;14.68;;;13.27;;
67442;SDS011;54311;51.726;5.154;2023-03-01T10:49:52;13.98;;;12.60;;
67442;SDS011;54311;51.726;5.154;2023-03-01T10:52:40;14.13;;;12.40;;
67442;SDS011;54311;51.726;5.154;2023-03-01T10:58:11;13.38;;;12.18;;
67442;SDS011;54311;51.726;5.154;2023-03-01T11:03:19;14.20;;;12.40;;
67442;SDS011;54311;51.726;5.154;2023-03-01T11:05:51;13.77;;;12.43;;
67442;SDS011;54311;51.726;5.154;2023-03-01T11:08:26;13.70;;;12.43;;
67442;SDS011;54311;51.726;5.154;2023-03-01T11:13:50;13.52;;;12.43;;
67442;SDS011;54311;51.726;5.154;2023-03-01T11:16:23;15.00;;;11.95;;
67442;SDS011;54311;51.726;5.154;2023-03-01T11:21:33;14.32;;;11.32;;
67442;SDS011;54311;51.726;5.154;2023-03-01T11:24:00;16.33;;;12.70;;
67442;SDS011;54311;51.726;5.154;2023-03-01T11:26:27;13.52;;;12.43;;
67442;SDS011;54311;51.726;5.154;2023-03-01T11:28:54;15.30;;;13.80;;
67442;SDS011;54311;51.726;5.154;2023-03-01T11:31:22;13.60;;;12.50;;
67442;SDS011;54311;51.726;5.154;2023-03-01T11:39:05;14.80;;;13.48;;
67442;SDS011;54311;51.726;5.154;2023-03-01T11:41:43;14.35;;;12.98;;
67442;SDS011;54311;51.726;5.154;2023-03-01T11:44:12;13.18;;;11.88;;
67442;SDS011;54311;51.726;5.154;2023-03-01T11:54:47;15.43;;;14.07;;
67442;SDS011;54311;51.726;5.154;2023-03-01T12:00:44;13.48;;;12.20;;
67442;SDS011;54311;51.726;5.154;2023-03-01T12:03:47;14.85;;;13.45;;
67442;SDS011;54311;51.726;5.154;2023-03-01T12:09:17;13.57;;;12.18;;
67442;SDS011;54311;51.726;5.154;2023-03-01T12:23:26;13.52;;;12.23;;
67442;SDS011;54311;51.726;5.154;2023-03-01T12:31:41;15.00;;;13.32;;
67442;SDS011;54311;51.726;5.154;2023-03-01T12:34:21;14.15;;;12.80;;
67442;SDS011;54311;51.726;5.154;2023-03-01T12:36:52;12.93;;;11.73;;
67442;SDS011;54311;51.726;5.154;2023-03-01T12:39:26;14.05;;;12.60;;
67442;SDS011;54311;51.726;5.154;2023-03-01T12:44:43;13.15;;;11.85;;
67442;SDS011;54311;51.726;5.154;2023-03-01T12:49:56;12.75;;;11.73;;
67442;SDS011;54311;51.726;5.154;2023-03-01T12:55:01;12.98;;;11.77;;
67442;SDS011;54311;51.726;5.154;2023-03-01T13:05:56;14.85;;;13.38;;
67442;SDS011;54311;51.726;5.154;2023-03-01T13:11:21;12.10;;;11.10;;
67442;SDS011;54311;51.726;5.154;2023-03-01T13:13:47;12.32;;;11.23;;
67442;SDS011;54311;51.726;5.154;2023-03-01T13:18:44;13.50;;;11.60;;
67442;SDS011;54311;51.726;5.154;2023-03-01T13:21:10;13.23;;;11.27;;
67442;SDS011;54311;51.726;5.154;2023-03-01T13:23:37;11.88;;;10.82;;
67442;SDS011;54311;51.726;5.154;2023-03-01T13:28:40;11.50;;;10.02;;
67442;SDS011;54311;51.726;5.154;2023-03-01T13:31:08;13.27;;;12.00;;
67442;SDS011;54311;51.726;5.154;2023-03-01T13:36:05;13.25;;;12.15;;
67442;SDS011;54311;51.726;5.154;2023-03-01T13:41:14;11.88;;;10.88;;
67442;SDS011;54311;51.726;5.154;2023-03-01T13:43:42;11.50;;;10.40;;
67442;SDS011;54311;51.726;5.154;2023-03-01T13:46:10;11.85;;;10.82;;
67442;SDS011;54311;51.726;5.154;2023-03-01T13:48:38;13.55;;;11.00;;
67442;SDS011;54311;51.726;5.154;2023-03-01T13:51:05;12.48;;;11.32;;
67442;SDS011;54311;51.726;5.154;2023-03-01T13:53:33;12.55;;;11.25;;
67442;SDS011;54311;51.726;5.154;2023-03-01T13:56:03;12.05;;;10.95;;
67442;SDS011;54311;51.726;5.154;2023-03-01T13:58:33;12.85;;;11.65;;
67442;SDS011;54311;51.726;5.154;2023-03-01T14:04:17;12.20;;;11.10;;
67442;SDS011;54311;51.726;5.154;2023-03-01T14:06:47;10.90;;;9.55;;
67442;SDS011;54311;51.726;5.154;2023-03-01T14:09:17;13.57;;;11.25;;
67442;SDS011;54311;51.726;5.154;2023-03-01T14:20:17;12.63;;;11.52;;
67442;SDS011;54311;51.726;5.154;2023-03-01T14:22:44;12.35;;;11.35;;
67442;SDS011;54311;51.726;5.154;2023-03-01T14:25:45;12.05;;;10.98;;
67442;SDS011;54311;51.726;5.154;2023-03-01T14:28:10;11.65;;;10.68;;
67442;SDS011;54311;51.726;5.154;2023-03-01T14:30:58;11.73;;;10.73;;
67442;SDS011;54311;51.726;5.154;2023-03-01T14:33:34;12.02;;;11.02;;
67442;SDS011;54311;51.726;5.154;2023-03-01T14:36:02;13.88;;;11.15;;
67442;SDS011;54311;51.726;5.154;2023-03-01T14:38:37;12.70;;;11.40;;
67442;SDS011;54311;51.726;5.154;2023-03-01T14:41:11;12.88;;;11.75;;
67442;SDS011;54311;51.726;5.154;2023-03-01T14:43:50;13.93;;;11.07;;
67442;SDS011;54311;51.726;5.154;2023-03-01T14:49:19;12.68;;;10.90;;
67442;SDS011;54311;51.726;5.154;2023-03-01T14:51:49;12.57;;;11.27;;
67442;SDS011;54311;51.726;5.154;2023-03-01T14:54:21;12.98;;;11.82;;
67442;SDS011;54311;51.726;5.154;2023-03-01T14:56:50;11.48;;;10.38;;
67442;SDS011;54311;51.726;5.154;2023-03-01T14:59:21;15.15;;;13.02;;
67442;SDS011;54311;51.726;5.154;2023-03-01T15:01:48;12.70;;;11.57;;
67442;SDS011;54311;51.726;5.154;2023-03-01T15:04:13;13.98;;;12.68;;
67442;SDS011;54311;51.726;5.154;2023-03-01T15:06:39;13.07;;;11.95;;
67442;SDS011;54311;51.726;5.154;2023-03-01T15:09:05;11.98;;;11.00;;
67442;SDS011;54311;51.726;5.154;2023-03-01T15:11:32;14.18;;;10.68;;
67442;SDS011;54311;51.726;5.154;2023-03-01T15:13:58;12.30;;;10.90;;
67442;SDS011;54311;51.726;5.154;2023-03-01T15:16:24;12.63;;;11.65;;
67442;SDS011;54311;51.726;5.154;2023-03-01T15:18:53;11.85;;;10.85;;
67442;SDS011;54311;51.726;5.154;2023-03-01T15:21:21;14.75;;;13.45;;
67442;SDS011;54311;51.726;5.154;2023-03-01T15:23:55;12.43;;;11.38;;
67442;SDS011;54311;51.726;5.154;2023-03-01T15:26:23;13.57;;;11.65;;
67442;SDS011;54311;51.726;5.154;2023-03-01T15:28:52;11.60;;;10.70;;
67442;SDS011;54311;51.726;5.154;2023-03-01T15:31:24;11.30;;;10.35;;
67442;SDS011;54311;51.726;5.154;2023-03-01T15:33:51;11.98;;;10.65;;
67442;SDS011;54311;51.726;5.154;2023-03-01T15:39:30;11.70;;;10.73;;
67442;SDS011;54311;51.726;5.154;2023-03-01T15:42:03;11.85;;;10.57;;
67442;SDS011;54311;51.726;5.154;2023-03-01T15:44:36;12.48;;;11.45;;
67442;SDS011;54311;51.726;5.154;2023-03-01T15:47:19;15.13;;;13.65;;
67442;SDS011;54311;51.726;5.154;2023-03-01T15:49:47;13.00;;;11.80;;
67442;SDS011;54311;51.726;5.154;2023-03-01T15:52:21;13.23;;;12.05;;
67442;SDS011;54311;51.726;5.154;2023-03-01T15:54:54;13.60;;;12.27;;
67442;SDS011;54311;51.726;5.154;2023-03-01T15:57:20;13.52;;;12.40;;
67442;SDS011;54311;51.726;5.154;2023-03-01T15:59:46;21.42;;;13.93;;
67442;SDS011;54311;51.726;5.154;2023-03-01T16:02:11;13.90;;;12.50;;
67442;SDS011;54311;51.726;5.154;2023-03-01T16:04:40;18.15;;;16.52;;
67442;SDS011;54311;51.726;5.154;2023-03-01T16:07:05;16.35;;;13.10;;
67442;SDS011;54311;51.726;5.154;2023-03-01T16:09:30;20.63;;;15.27;;
67442;SDS011;54311;51.726;5.154;2023-03-01T16:11:56;14.35;;;12.43;;
67442;SDS011;54311;51.726;5.154;2023-03-01T16:14:21;14.25;;;12.57;;
67442;SDS011;54311;51.726;5.154;2023-03-01T16:16:47;12.80;;;11.20;;
67442;SDS011;54311;51.726;5.154;2023-03-01T16:19:15;13.73;;;10.93;;
67442;SDS011;54311;51.726;5.154;2023-03-01T16:21:41;13.93;;;12.48;;
67442;SDS011;54311;51.726;5.154;2023-03-01T16:24:07;14.38;;;12.93;;
67442;SDS011;54311;51.726;5.154;2023-03-01T16:26:33;15.80;;;12.68;;
67442;SDS011;54311;51.726;5.154;2023-03-01T16:28:58;14.48;;;12.85;;
67442;SDS011;54311;51.726;5.154;2023-03-01T16:31:24;18.85;;;14.18;;
67442;SDS011;54311;51.726;5.154;2023-03-01T16:33:55;13.93;;;12.00;;